Time;durP1;ratioP1;P1;durP2;ratioP2;P2;SDS_P1;SDS_P2;PMS_P1;PMS_P2;Temp;Humidity;BMP_temperature;BMP_pressure;BME280_temperature;BME280_humidity;BME280_pressure;Samples;Min_cycle;Max_cycle;Signal;HPM_P1;HPM_P2
2023/04/09 00:01:22;;;;;;;11.60;8.80;;;;;;;20.82;45.54;100070.03;104495;1257;73180;-63
2023/04/09 00:03:51;;;;;;;11.40;9.10;;;;;;;20.83;45.34;100064.62;104296;1259;68926;-61
2023/04/09 00:06:21;;;;;;;8.90;8.00;;;;;;;20.78;45.37;100065.36;104384;1254;71734;-63
2023/04/09 00:08:49;;;;;;;10.00;9.10;;;;;;;20.73;45.19;100061.16;104372;1258;61812;-71
2023/04/09 00:11:21;;;;;;;10.80;9.00;;;;;;;20.67;45.18;100065.55;104425;1254;60802;-66
2023/04/09 00:13:51;;;;;;;10.80;8.70;;;;;;;20.62;45.35;100065.73;104312;1258;73175;-60
2023/04/09 00:16:19;;;;;;;11.00;8.80;;;;;;;20.62;45.04;100067.11;104394;1269;68745;-63
2023/04/09 00:18:48;;;;;;;10.10;7.90;;;;;;;20.66;44.65;100067.88;104423;1259;73100;-63
2023/04/09 00:21:17;;;;;;;9.80;8.40;;;;;;;20.64;44.60;100063.23;104361;1254;62076;-63
2023/04/09 00:23:45;;;;;;;9.30;7.70;;;;;;;20.62;44.56;100066.97;104323;1259;60466;-62
2023/04/09 00:26:15;;;;;;;9.70;7.90;;;;;;;20.58;44.67;100063.65;104339;1254;73205;-68
2023/04/09 00:28:44;;;;;;;8.60;7.60;;;;;;;20.46;44.76;100066.05;104337;1271;69127;-62
2023/04/09 00:31:12;;;;;;;8.40;7.20;;;;;;;20.46;44.72;100062.11;104328;1254;71733;-63
2023/04/09 00:33:40;;;;;;;11.20;7.40;;;;;;;20.50;44.43;100061.98;104237;1270;61834;-62
2023/04/09 00:36:10;;;;;;;10.50;7.70;;;;;;;20.42;44.66;100059.90;104346;1260;60571;-63
2023/04/09 00:38:38;;;;;;;8.10;7.20;;;;;;;20.42;44.89;100061.92;104384;1259;73235;-62
2023/04/09 00:41:07;;;;;;;8.20;7.20;;;;;;;20.42;44.43;100060.65;104378;1256;68875;-62
2023/04/09 00:43:36;;;;;;;9.30;8.10;;;;;;;20.36;44.89;100058.09;104442;1269;72866;-62
2023/04/09 00:46:05;;;;;;;10.20;8.60;;;;;;;20.32;45.08;100060.52;104290;1260;61863;-61
2023/04/09 00:48:33;;;;;;;11.80;9.00;;;;;;;20.31;44.74;100059.92;104509;1259;61123;-61
2023/04/09 00:51:02;;;;;;;8.60;7.20;;;;;;;20.24;44.57;100060.64;104336;1273;73179;-61
2023/04/09 00:53:30;;;;;;;10.30;7.30;;;;;;;20.23;44.57;100060.66;104831;1258;69610;-61
2023/04/09 00:55:59;;;;;;;10.50;8.40;;;;;;;20.26;44.36;100061.85;104755;1252;71860;-60
2023/04/09 00:58:32;;;;;;;9.80;7.90;;;;;;;20.31;44.80;100062.42;104787;1254;62151;-60
2023/04/09 01:01:01;;;;;;;9.60;8.20;;;;;;;20.36;44.83;100057.58;104536;1263;60223;-60
2023/04/09 01:03:29;;;;;;;11.80;7.80;;;;;;;20.41;44.67;100057.52;104355;1260;74142;-61
2023/04/09 01:06:22;;;;;;;12.40;8.50;;;;;;;20.35;45.24;100061.34;104400;1258;70268;-60
2023/04/09 01:09:29;;;;;;;9.20;8.30;;;;;;;20.32;44.96;100062.84;104328;1254;73391;-61
2023/04/09 01:12:01;;;;;;;10.30;9.00;;;;;;;20.33;44.87;100061.92;104252;1273;60903;-60
2023/04/09 01:14:41;;;;;;;13.60;9.40;;;;;;;20.29;45.22;100060.92;104264;1261;59956;-61
2023/04/09 01:17:23;;;;;;;13.30;9.50;;;;;;;20.26;45.03;100064.92;104297;1272;72778;-61
2023/04/09 01:20:04;;;;;;;12.50;9.50;;;;;;;20.22;45.24;100066.23;104328;1266;68425;-61
2023/04/09 01:22:45;;;;;;;11.30;9.80;;;;;;;20.15;45.03;100065.95;104353;1259;72361;-60
2023/04/09 01:25:13;;;;;;;11.00;9.50;;;;;;;20.10;44.99;100070.58;104308;1258;60803;-60
2023/04/09 01:28:13;;;;;;;10.10;9.00;;;;;;;20.02;44.93;100068.81;104354;1260;60467;-60
2023/04/09 01:30:46;;;;;;;10.00;8.60;;;;;;;19.94;45.24;100074.48;104380;1257;73338;-61
2023/04/09 01:33:15;;;;;;;11.10;9.20;;;;;;;19.83;45.36;100068.29;104296;1270;70106;-61
2023/04/09 01:35:46;;;;;;;9.00;8.10;;;;;;;19.81;45.06;100069.90;104323;1268;72970;-61
2023/04/09 01:38:15;;;;;;;9.50;7.90;;;;;;;19.87;44.90;100071.08;104330;1259;61845;-61
2023/04/09 01:40:44;;;;;;;8.20;7.40;;;;;;;19.85;44.97;100071.55;104347;1254;60545;-60
2023/04/09 01:43:13;;;;;;;9.70;7.30;;;;;;;19.80;45.30;100073.87;104277;1254;73390;-60
2023/04/09 01:45:43;;;;;;;8.30;7.40;;;;;;;19.87;45.14;100076.89;104306;1267;68668;-60
2023/04/09 01:48:12;;;;;;;8.00;7.20;;;;;;;19.84;45.14;100073.60;104299;1257;72083;-61
2023/04/09 01:50:43;;;;;;;7.80;7.00;;;;;;;19.84;44.75;100076.64;104352;1257;60817;-60
2023/04/09 01:53:11;;;;;;;10.20;8.40;;;;;;;19.79;44.74;100076.29;104400;1259;60572;-62
2023/04/09 01:55:39;;;;;;;8.40;7.60;;;;;;;19.75;44.67;100076.39;104438;1256;73936;-60
2023/04/09 01:58:09;;;;;;;7.80;7.00;;;;;;;19.75;44.78;100074.42;104266;1275;69562;-60
2023/04/09 02:00:47;;;;;;;8.90;7.20;;;;;;;19.78;44.56;100073.84;104374;1272;72395;-60
2023/04/09 02:03:21;;;;;;;8.10;7.30;;;;;;;19.79;44.73;100078.91;104532;1257;61300;-61
2023/04/09 02:08:34;;;;;;;8.20;7.40;;;;;;;18.75;50.02;100083.09;101053;1296;618027;-61
2023/04/09 02:11:04;;;;;;;8.60;7.50;;;;;;;19.93;45.08;100079.67;103362;1272;61322;-61
2023/04/09 02:13:31;;;;;;;8.20;6.90;;;;;;;19.84;45.22;100081.56;103585;1267;59361;-61
2023/04/09 02:16:01;;;;;;;8.80;7.20;;;;;;;19.81;45.36;100080.15;103338;1272;71846;-62
2023/04/09 02:18:29;;;;;;;9.80;7.30;;;;;;;19.75;45.52;100080.13;103566;1269;69627;-61
2023/04/09 02:20:57;;;;;;;9.10;7.60;;;;;;;19.69;45.56;100077.16;103403;1267;169031;-61
2023/04/09 02:23:26;;;;;;;8.30;7.20;;;;;;;19.70;45.39;100074.05;103569;1272;61001;-63
2023/04/09 02:25:53;;;;;;;9.10;7.80;;;;;;;19.69;45.48;100075.55;103800;1269;59798;-62
2023/04/09 02:28:25;;;;;;;9.70;7.80;;;;;;;19.63;45.63;100078.63;103759;1267;72638;-62
2023/04/09 02:30:52;;;;;;;8.00;7.00;;;;;;;19.58;45.61;100076.50;103974;1264;68749;-62
2023/04/09 02:33:19;;;;;;;9.10;8.00;;;;;;;19.60;45.65;100076.23;104095;1267;71934;-62
2023/04/09 02:35:50;;;;;;;12.80;8.20;;;;;;;19.56;45.76;100080.27;103869;1268;61425;-62
2023/04/09 02:38:18;;;;;;;9.20;7.60;;;;;;;19.57;45.46;100083.70;103634;1270;60198;-62
2023/04/09 02:40:47;;;;;;;8.20;7.40;;;;;;;19.57;45.47;100084.61;103929;1280;72564;-63
2023/04/09 02:43:14;;;;;;;8.90;7.40;;;;;;;19.55;45.57;100086.36;103805;1276;69033;-62
2023/04/09 02:45:41;;;;;;;7.70;7.00;;;;;;;19.57;45.31;100083.39;103911;1274;72843;-62
2023/04/09 02:48:12;;;;;;;9.30;6.90;;;;;;;19.55;45.67;100086.01;103905;1264;62043;-61
2023/04/09 02:50:41;;;;;;;8.30;7.00;;;;;;;19.53;45.39;100084.02;103949;1267;59343;-62
2023/04/09 02:53:08;;;;;;;6.90;6.20;;;;;;;19.42;45.57;100086.02;103623;1279;73321;-61
2023/04/09 02:55:35;;;;;;;10.60;5.90;;;;;;;19.43;45.73;100086.32;103543;1274;68778;-61
2023/04/09 02:58:02;;;;;;;6.20;5.60;;;;;;;19.43;45.99;100082.05;103910;1274;72075;-63
2023/04/09 03:00:31;;;;;;;6.90;6.00;;;;;;;19.41;46.99;100080.81;103542;1264;61014;-61
2023/04/09 03:02:59;;;;;;;;;;;;;;;19.36;47.06;100078.89;103631;1263;59381;-61
2023/04/09 03:05:26;;;;;;;7.70;6.80;;;;;;;19.29;47.24;100080.95;103804;1287;72147;-60
2023/04/09 03:07:53;;;;;;;11.60;6.80;;;;;;;19.21;46.73;100082.02;103684;1270;68768;-61
2023/04/09 03:10:21;;;;;;;8.10;7.40;;;;;;;19.23;46.93;100079.58;103933;1267;72702;-61
2023/04/09 03:12:48;;;;;;;8.80;8.00;;;;;;;19.07;47.46;100081.63;103798;1283;60991;-64
2023/04/09 03:15:15;;;;;;;8.90;8.00;;;;;;;19.02;47.74;100082.33;103922;1275;60165;-61
2023/04/09 03:17:45;;;;;;;9.00;7.90;;;;;;;19.02;47.32;100082.34;103851;1267;72744;-61
2023/04/09 03:20:12;;;;;;;9.50;8.50;;;;;;;19.00;47.27;100081.58;103943;1280;69290;-61
2023/04/09 03:22:40;;;;;;;10.50;8.00;;;;;;;19.04;47.51;100083.63;103800;1268;72598;-62
2023/04/09 03:25:34;;;;;;;11.30;8.00;;;;;;;19.10;47.46;100083.90;103821;1280;61060;-61
2023/04/09 03:28:08;;;;;;;11.30;9.40;;;;;;;19.02;48.19;100080.89;103587;1264;59945;-61
2023/04/09 03:30:42;;;;;;;12.70;8.70;;;;;;;19.10;48.35;100083.71;104378;1258;74144;-61
2023/04/09 03:33:09;;;;;;;9.30;8.50;;;;;;;19.05;47.68;100082.30;104497;1264;72058;-61
2023/04/09 03:35:45;;;;;;;11.20;9.30;;;;;;;19.01;48.13;100079.17;104330;1256;71885;-61
2023/04/09 03:38:14;;;;;;;9.20;8.20;;;;;;;18.94;48.59;100087.50;104278;1254;60943;-61
2023/04/09 03:40:41;;;;;;;10.60;8.50;;;;;;;18.92;48.67;100088.35;104376;1257;61267;-60
2023/04/09 03:43:08;;;;;;;;;;;;;;;18.95;48.65;100087.98;104263;1264;72705;-60
2023/04/09 03:45:38;;;;;;;8.20;7.40;;;;;;;19.09;49.12;100084.67;104704;1256;69966;-60
2023/04/09 03:48:26;;;;;;;10.10;7.70;;;;;;;19.08;48.69;100086.68;104361;1258;73147;-61
2023/04/09 03:50:53;;;;;;;8.80;7.90;;;;;;;19.04;48.84;100083.43;104442;1260;61907;-62
2023/04/09 03:53:34;;;;;;;8.30;7.50;;;;;;;18.92;49.67;100083.55;104227;1262;60638;-62
2023/04/09 03:56:03;;;;;;;9.70;7.20;;;;;;;18.81;49.86;100082.04;104410;1257;72709;-63
2023/04/09 03:58:31;;;;;;;8.40;7.60;;;;;;;18.82;49.84;100089.09;104375;1254;69431;-62
2023/04/09 04:00:58;;;;;;;8.30;7.50;;;;;;;18.88;49.79;100088.16;104309;1261;73129;-63
2023/04/09 04:03:37;;;;;;;10.20;7.60;;;;;;;18.97;49.89;100089.61;104297;1268;61218;-61
2023/04/09 04:06:09;;;;;;;8.40;7.60;;;;;;;18.98;49.52;100086.52;104326;1254;59744;-61
2023/04/09 04:08:44;;;;;;;11.10;7.70;;;;;;;18.96;49.64;100085.06;104250;1257;72033;-60
2023/04/09 04:11:11;;;;;;;10.60;7.70;;;;;;;19.08;49.27;100087.05;104600;1257;69313;-60
2023/04/09 04:13:39;;;;;;;7.50;6.80;;;;;;;19.25;49.02;100091.55;104362;1256;71628;-60
2023/04/09 04:16:08;;;;;;;9.90;8.00;;;;;;;19.30;49.01;100095.45;104424;1264;60701;-60
2023/04/09 04:18:36;;;;;;;9.30;7.00;;;;;;;19.33;48.97;100099.49;104341;1253;61213;-60
2023/04/09 04:21:03;;;;;;;8.60;7.50;;;;;;;19.36;49.06;100101.59;104249;1267;71826;-60
2023/04/09 04:23:50;;;;;;;8.50;7.60;;;;;;;19.37;49.31;100103.08;104279;1267;72396;-61
2023/04/09 04:26:20;;;;;;;8.40;7.50;;;;;;;19.34;49.18;100101.89;104302;1255;72374;-60
2023/04/09 04:28:47;;;;;;;9.40;7.60;;;;;;;19.30;49.62;100106.32;104353;1269;61647;-61
2023/04/09 04:31:24;;;;;;;10.30;8.30;;;;;;;19.23;50.11;100106.05;104240;1260;59517;-61
2023/04/09 04:33:53;;;;;;;8.60;7.30;;;;;;;19.12;50.49;100106.32;104164;1275;73188;-60
2023/04/09 04:36:19;;;;;;;9.10;8.20;;;;;;;19.05;50.63;100107.73;104314;1257;69944;-60
2023/04/09 04:38:52;;;;;;;10.30;8.30;;;;;;;19.05;51.09;100106.33;104300;1255;72038;-60
2023/04/09 04:41:30;;;;;;;8.10;7.20;;;;;;;19.21;50.87;100106.09;104307;1267;60998;-60
2023/04/09 04:44:06;;;;;;;8.30;7.50;;;;;;;19.23;51.03;100105.52;104255;1268;60542;-62
2023/04/09 04:46:33;;;;;;;8.20;7.40;;;;;;;19.14;51.08;100107.62;104593;1254;73181;-61
2023/04/09 04:49:02;;;;;;;8.70;7.30;;;;;;;19.12;51.51;100108.64;104350;1264;69481;-63
2023/04/09 04:51:31;;;;;;;8.00;7.20;;;;;;;19.22;51.17;100109.19;104301;1258;74517;-61
2023/04/09 04:54:04;;;;;;;8.30;7.10;;;;;;;19.25;51.28;100111.26;104306;1254;61126;-61
2023/04/09 04:56:31;;;;;;;7.30;6.50;;;;;;;19.23;51.63;100110.04;104333;1269;60360;-62
2023/04/09 04:59:06;;;;;;;9.20;7.10;;;;;;;19.24;51.99;100113.46;104275;1254;73441;-65
2023/04/09 05:01:44;;;;;;;7.60;6.90;;;;;;;19.35;51.83;100111.30;104285;1257;69024;-59
2023/04/09 05:04:12;;;;;;;7.10;6.40;;;;;;;19.48;51.82;100114.94;104304;1257;72625;-60
2023/04/09 05:06:40;;;;;;;8.20;6.20;;;;;;;19.59;51.47;100115.27;104204;1270;60969;-60
2023/04/09 05:09:10;;;;;;;7.70;6.30;;;;;;;19.66;51.28;100114.59;104276;1254;60358;-60
2023/04/09 05:11:43;;;;;;;7.60;6.70;;;;;;;19.71;51.09;100109.90;104282;1258;72933;-61
2023/04/09 05:14:14;;;;;;;9.10;5.90;;;;;;;19.75;50.92;100114.23;104318;1256;70106;-62
2023/04/09 05:16:43;;;;;;;6.80;5.60;;;;;;;19.81;50.70;100117.36;104268;1259;72900;-64
2023/04/09 05:19:10;;;;;;;7.00;6.30;;;;;;;19.86;50.79;100120.71;104219;1260;60813;-61
2023/04/09 05:21:38;;;;;;;9.70;6.40;;;;;;;19.91;50.45;100117.88;104374;1254;59713;-60
2023/04/09 05:24:05;;;;;;;8.30;6.30;;;;;;;20.00;50.35;100119.54;104478;1261;72578;-61
2023/04/09 05:26:34;;;;;;;6.60;6.00;;;;;;;20.05;50.23;100121.26;104262;1262;69999;-60
2023/04/09 05:29:02;;;;;;;8.30;5.90;;;;;;;20.06;49.83;100126.17;104495;1253;73618;-61
2023/04/09 05:31:31;;;;;;;6.40;5.80;;;;;;;20.11;49.58;100126.02;104359;1253;61870;-60
2023/04/09 05:34:05;;;;;;;6.70;5.90;;;;;;;20.15;49.90;100123.59;104336;1253;59681;-60
2023/04/09 05:36:35;;;;;;;7.30;5.80;;;;;;;20.19;50.09;100127.90;104452;1253;73324;-60
2023/04/09 05:39:05;;;;;;;6.60;5.80;;;;;;;20.28;50.11;100130.60;104377;1270;69731;-60
2023/04/09 05:41:32;;;;;;;6.60;5.90;;;;;;;20.35;49.99;100127.44;104327;1264;72161;-62
2023/04/09 05:44:19;;;;;;;7.70;6.20;;;;;;;20.44;49.79;100131.70;104477;1253;61779;-60
2023/04/09 05:46:51;;;;;;;8.00;5.90;;;;;;;20.51;49.80;100131.00;104371;1254;59672;-59
2023/04/09 05:49:22;;;;;;;7.20;5.80;;;;;;;20.57;49.52;100132.52;104326;1257;72346;-61
2023/04/09 05:51:51;;;;;;;7.60;5.70;;;;;;;20.66;49.46;100133.06;104463;1253;69873;-61
2023/04/09 05:54:23;;;;;;;7.20;5.90;;;;;;;20.71;49.33;100132.01;104288;1266;72051;-60
2023/04/09 05:56:51;;;;;;;9.20;6.00;;;;;;;20.74;49.47;100131.98;104387;1256;60781;-61
2023/04/09 05:59:19;;;;;;;7.10;5.60;;;;;;;20.83;49.59;100132.87;104353;1270;60574;-61
2023/04/09 06:01:46;;;;;;;6.20;5.60;;;;;;;20.91;49.66;100134.02;104409;1252;72101;-61
2023/04/09 06:04:14;;;;;;;6.00;5.40;;;;;;;20.95;50.07;100132.27;104213;1258;69905;-61
2023/04/09 06:06:43;;;;;;;6.60;5.80;;;;;;;21.03;50.75;100133.23;104253;1258;72306;-61
2023/04/09 06:09:11;;;;;;;6.80;5.70;;;;;;;21.16;50.21;100132.23;104300;1259;62255;-61
2023/04/09 06:11:38;;;;;;;8.20;5.60;;;;;;;21.22;50.08;100131.97;104759;1253;59651;-62
2023/04/09 06:14:05;;;;;;;7.60;5.40;;;;;;;21.28;49.89;100134.86;104244;1257;72568;-62
2023/04/09 06:16:34;;;;;;;7.70;5.20;;;;;;;21.39;50.41;100142.72;104368;1252;69420;-60
2023/04/09 06:19:01;;;;;;;5.80;4.90;;;;;;;21.50;50.24;100143.98;104318;1253;73495;-60
2023/04/09 06:21:27;;;;;;;6.00;5.40;;;;;;;21.58;51.04;100147.45;104273;1259;60879;-60
2023/04/09 06:23:55;;;;;;;5.80;5.10;;;;;;;21.69;51.00;100147.43;104359;1258;60540;-61
2023/04/09 06:26:22;;;;;;;6.60;5.90;;;;;;;21.79;50.21;100152.01;104347;1257;73354;-61
2023/04/09 06:28:49;;;;;;;8.50;5.90;;;;;;;21.87;50.16;100152.63;104262;1262;69082;-60
2023/04/09 06:31:16;;;;;;;6.10;5.60;;;;;;;21.92;50.30;100151.07;104364;1254;71936;-60
2023/04/09 06:33:43;;;;;;;7.30;5.50;;;;;;;21.95;50.18;100154.06;104439;1264;61329;-61
2023/04/09 06:36:10;;;;;;;7.60;5.50;;;;;;;22.03;49.76;100150.19;104560;1257;60556;-61
2023/04/09 06:38:38;;;;;;;7.50;5.20;;;;;;;22.11;49.49;100152.02;104250;1257;73061;-61
2023/04/09 06:41:07;;;;;;;8.30;5.60;;;;;;;22.20;49.30;100155.53;104334;1260;69424;-60
2023/04/09 06:43:36;;;;;;;5.50;4.80;;;;;;;22.26;48.94;100150.64;104499;1269;73271;-62
2023/04/09 06:46:03;;;;;;;5.80;5.10;;;;;;;22.31;48.95;100149.34;104622;1254;62729;-61
2023/04/09 06:48:30;;;;;;;5.40;4.90;;;;;;;22.40;48.92;100151.27;104459;1252;60503;-61
2023/04/09 06:50:57;;;;;;;5.30;4.50;;;;;;;22.46;48.97;100152.02;104668;1253;73791;-61
2023/04/09 06:53:26;;;;;;;6.70;4.80;;;;;;;22.57;48.54;100152.70;104529;1257;69691;-60
2023/04/09 06:55:54;;;;;;;5.20;4.30;;;;;;;22.63;48.17;100150.38;104430;1261;72169;-61
2023/04/09 06:58:24;;;;;;;5.80;4.40;;;;;;;22.71;48.22;100150.59;104476;1262;61515;-61
2023/04/09 07:00:52;;;;;;;6.20;4.60;;;;;;;22.81;48.17;100150.09;104370;1269;60171;-60
2023/04/09 07:03:26;;;;;;;6.50;4.40;;;;;;;22.90;47.97;100146.59;104519;1257;74236;-59
2023/04/09 07:05:55;;;;;;;7.00;3.90;;;;;;;22.96;47.37;100149.52;104274;1264;70015;-59
2023/04/09 07:08:22;;;;;;;4.40;4.00;;;;;;;22.96;47.23;100144.84;104410;1267;71935;-61
2023/04/09 07:10:57;;;;;;;5.90;3.70;;;;;;;23.05;47.00;100147.73;104390;1268;61172;-61
2023/04/09 07:13:26;;;;;;;9.10;3.80;;;;;;;23.16;46.06;100148.92;104421;1252;60555;-60
2023/04/09 07:15:54;;;;;;;5.70;3.40;;;;;;;23.22;45.53;100150.52;104271;1257;72986;-59
2023/04/09 07:18:30;;;;;;;5.70;3.20;;;;;;;23.30;44.93;100145.36;104334;1258;69397;-59
2023/04/09 07:20:59;;;;;;;6.30;3.00;;;;;;;23.33;45.24;100145.01;104336;1257;72748;-60
2023/04/09 07:23:26;;;;;;;3.20;2.60;;;;;;;23.47;45.13;100143.12;104393;1268;61268;-60
2023/04/09 07:25:54;;;;;;;3.50;3.20;;;;;;;23.54;44.59;100147.45;104290;1263;60547;-60
2023/04/09 07:28:22;;;;;;;3.20;2.90;;;;;;;23.63;43.99;100149.02;104465;1257;73132;-59
2023/04/09 07:30:49;;;;;;;4.40;2.70;;;;;;;23.68;43.06;100152.02;104407;1268;68878;-60
2023/04/09 07:33:36;;;;;;;4.80;2.50;;;;;;;23.75;43.54;100149.58;104409;1252;75802;-61
2023/04/09 07:36:03;;;;;;;4.00;2.80;;;;;;;23.83;42.93;100152.30;104409;1253;61033;-60
2023/04/09 07:38:30;;;;;;;3.80;2.70;;;;;;;23.90;43.42;100151.48;104523;1258;60454;-61
2023/04/09 07:41:02;;;;;;;2.90;2.40;;;;;;;23.95;42.81;100146.77;104391;1257;74061;-61
2023/04/09 07:43:31;;;;;;;5.70;2.60;;;;;;;24.02;42.73;100144.80;104464;1262;68681;-60
2023/04/09 07:45:59;;;;;;;4.10;2.60;;;;;;;24.07;41.72;100146.98;104445;1256;72191;-61
2023/04/09 07:48:27;;;;;;;2.60;2.30;;;;;;;24.14;41.45;100144.80;104368;1258;61012;-60
2023/04/09 07:50:54;;;;;;;3.50;2.20;;;;;;;24.21;41.70;100146.29;104411;1252;59873;-60
2023/04/09 07:53:27;;;;;;;7.40;2.50;;;;;;;24.30;41.43;100143.19;104428;1252;74274;-60
2023/04/09 07:55:55;;;;;;;2.60;2.40;;;;;;;24.37;42.04;100143.91;104263;1257;70020;-60
2023/04/09 07:58:22;;;;;;;4.40;2.50;;;;;;;24.44;41.93;100144.37;104308;1252;72849;-60
2023/04/09 08:00:49;;;;;;;5.00;2.10;;;;;;;24.53;42.48;100143.52;104312;1253;60911;-61
2023/04/09 08:03:18;;;;;;;3.50;2.50;;;;;;;24.51;42.01;100142.65;104420;1256;60428;-60
2023/04/09 08:05:45;;;;;;;;;;;;;;;24.53;42.73;100144.84;104360;1252;72834;-61
2023/04/09 08:08:12;;;;;;;3.70;1.90;;;;;;;24.62;41.95;100144.56;104479;1253;68897;-60
2023/04/09 08:10:39;;;;;;;3.60;2.20;;;;;;;24.61;41.25;100145.88;104375;1253;71704;-61
2023/04/09 08:13:06;;;;;;;3.70;2.10;;;;;;;24.67;41.32;100143.85;104314;1254;61187;-60
2023/04/09 08:15:36;;;;;;;5.80;1.90;;;;;;;24.74;41.21;100141.13;104360;1252;60458;-60
2023/04/09 08:18:05;;;;;;;2.60;2.40;;;;;;;24.73;41.20;100145.11;104441;1255;74019;-60
2023/04/09 08:20:33;;;;;;;4.50;2.10;;;;;;;24.81;41.43;100145.09;104531;1255;69919;-63
2023/04/09 08:23:02;;;;;;;3.40;2.30;;;;;;;24.84;41.20;100140.48;104207;1253;72917;-59
2023/04/09 08:25:29;;;;;;;4.20;2.00;;;;;;;24.90;41.17;100138.98;104310;1253;60568;-59
2023/04/09 08:27:57;;;;;;;3.80;2.30;;;;;;;24.92;40.12;100139.57;104871;1253;60549;-60
2023/04/09 08:30:28;;;;;;;3.00;2.20;;;;;;;24.91;40.30;100138.59;104364;1257;73116;-60
2023/04/09 08:32:55;;;;;;;3.70;2.40;;;;;;;24.85;40.63;100133.00;104367;1254;68569;-61
2023/04/09 08:35:22;;;;;;;2.40;2.20;;;;;;;24.90;40.77;100133.95;104297;1254;71742;-60
2023/04/09 08:37:49;;;;;;;3.00;2.20;;;;;;;24.93;40.50;100136.04;104557;1262;62116;-60
2023/04/09 08:40:17;;;;;;;2.30;1.90;;;;;;;24.95;40.78;100134.75;104469;1259;60448;-60
2023/04/09 08:42:45;;;;;;;2.80;2.30;;;;;;;24.98;40.53;100135.40;104222;1277;73373;-61
2023/04/09 08:45:12;;;;;;;3.40;2.20;;;;;;;25.00;40.71;100134.79;104471;1257;69419;-60
2023/04/09 08:47:40;;;;;;;2.40;1.90;;;;;;;25.02;40.53;100136.27;104378;1257;72798;-59
2023/04/09 08:50:08;;;;;;;3.10;1.90;;;;;;;25.00;40.71;100134.34;104564;1254;62659;-60
2023/04/09 08:52:35;;;;;;;;;;;;;;;24.98;40.74;100131.96;104495;1276;60458;-60
2023/04/09 08:55:03;;;;;;;2.20;1.60;;;;;;;25.07;40.66;100131.64;104341;1257;73044;-60
2023/04/09 08:57:30;;;;;;;2.50;1.90;;;;;;;24.99;40.23;100130.09;104482;1253;70344;-62
2023/04/09 08:59:57;;;;;;;2.30;2.00;;;;;;;24.98;40.53;100130.22;104184;1275;72217;-60
2023/04/09 09:02:24;;;;;;;3.70;2.20;;;;;;;24.95;39.91;100127.82;104469;1257;60554;-60
2023/04/09 09:04:53;;;;;;;3.70;2.20;;;;;;;24.97;40.11;100130.98;104412;1269;59856;-59
2023/04/09 09:07:20;;;;;;;2.40;2.00;;;;;;;24.99;39.88;100130.66;104410;1263;73391;-60
2023/04/09 09:09:54;;;;;;;4.30;1.90;;;;;;;25.03;40.30;100126.13;104561;1256;69169;-59
2023/04/09 09:12:40;;;;;;;2.80;1.90;;;;;;;25.15;39.84;100123.87;104378;1258;72911;-59
2023/04/09 09:15:27;;;;;;;2.30;1.70;;;;;;;25.29;39.38;100124.02;104368;1262;62141;-59
2023/04/09 09:17:58;;;;;;;5.00;2.10;;;;;;;25.39;38.71;100125.86;104378;1267;60570;-59
2023/04/09 09:20:25;;;;;;;3.60;1.90;;;;;;;25.44;38.82;100125.41;104255;1257;73128;-60
2023/04/09 09:22:54;;;;;;;3.20;2.00;;;;;;;25.52;39.23;100120.66;104410;1253;71055;-60
2023/04/09 09:25:23;;;;;;;2.60;1.90;;;;;;;25.59;38.94;100115.86;104296;1257;72970;-60
2023/04/09 09:27:51;;;;;;;2.50;1.80;;;;;;;25.66;39.20;100114.86;104550;1257;60622;-60
2023/04/09 09:30:22;;;;;;;;;;;;;;;25.70;39.37;100110.32;104416;1255;60452;-60
2023/04/09 09:32:53;;;;;;;3.10;2.10;;;;;;;25.83;39.12;100112.39;104368;1253;72838;-60
2023/04/09 09:35:20;;;;;;;3.70;2.40;;;;;;;25.77;38.97;100109.80;104389;1256;71132;-61
2023/04/09 09:37:47;;;;;;;3.90;1.80;;;;;;;25.90;38.40;100106.17;104640;1257;71445;-60
2023/04/09 09:40:25;;;;;;;2.20;2.00;;;;;;;25.98;38.19;100103.39;104148;1252;60600;-60
2023/04/09 09:42:56;;;;;;;2.10;2.00;;;;;;;26.08;38.83;100101.04;104300;1253;60556;-61
2023/04/09 09:45:24;;;;;;;2.20;2.00;;;;;;;26.16;37.40;100091.34;104312;1254;73035;-60
2023/04/09 09:47:53;;;;;;;6.50;2.20;;;;;;;26.16;37.58;100093.33;104345;1262;70135;-60
2023/04/09 09:50:23;;;;;;;2.60;2.30;;;;;;;26.18;38.49;100093.34;104612;1257;71855;-59
2023/04/09 09:52:53;;;;;;;3.20;2.20;;;;;;;26.25;37.84;100087.02;104350;1253;60501;-59
2023/04/09 09:55:20;;;;;;;3.30;2.20;;;;;;;26.33;37.79;100088.55;104331;1254;61306;-59
2023/04/09 09:57:47;;;;;;;3.00;2.00;;;;;;;26.40;37.54;100089.16;104254;1258;74146;-59
2023/04/09 10:00:15;;;;;;;2.70;2.20;;;;;;;26.45;37.74;100091.09;104330;1259;70610;-59
2023/04/09 10:03:12;;;;;;;2.80;1.90;;;;;;;26.49;37.72;100081.34;104479;1257;73165;-59
2023/04/09 10:05:40;;;;;;;3.30;2.40;;;;;;;26.57;37.95;100079.69;104398;1256;60797;-59
2023/04/09 10:08:07;;;;;;;4.80;2.20;;;;;;;26.62;36.99;100080.23;104375;1256;60572;-59
2023/04/09 10:10:35;;;;;;;3.00;1.70;;;;;;;26.72;36.53;100079.16;104587;1256;74049;-60
2023/04/09 10:13:02;;;;;;;4.10;2.30;;;;;;;26.86;36.18;100080.42;104415;1257;69336;-60
2023/04/09 10:15:29;;;;;;;2.10;1.60;;;;;;;26.94;36.63;100076.35;104484;1260;73298;-60
2023/04/09 10:17:57;;;;;;;3.80;2.20;;;;;;;26.97;36.01;100076.63;104331;1256;60630;-61
2023/04/09 10:20:33;;;;;;;2.40;2.00;;;;;;;26.97;35.93;100074.07;104401;1254;60461;-60
2023/04/09 10:23:04;;;;;;;3.30;2.40;;;;;;;26.99;35.78;100072.83;104419;1256;73251;-60
2023/04/09 10:25:31;;;;;;;2.30;1.80;;;;;;;27.06;35.74;100067.88;104462;1275;69688;-60
2023/04/09 10:28:00;;;;;;;3.80;1.90;;;;;;;27.12;34.79;100065.29;104347;1253;72218;-61
2023/04/09 10:30:34;;;;;;;2.20;1.50;;;;;;;27.17;35.23;100068.59;104380;1254;60739;-61
2023/04/09 10:33:25;;;;;;;3.80;1.70;;;;;;;27.23;34.54;100065.78;104587;1253;62683;-61
2023/04/09 10:35:53;;;;;;;6.00;2.00;;;;;;;27.27;35.28;100064.31;104381;1257;74435;-61
2023/04/09 10:38:39;;;;;;;2.50;2.00;;;;;;;27.32;34.85;100061.21;104460;1252;69243;-61
2023/04/09 10:41:29;;;;;;;3.20;2.10;;;;;;;27.43;34.95;100051.38;104273;1257;72639;-61
2023/04/09 10:43:57;;;;;;;6.10;2.40;;;;;;;27.55;35.01;100050.46;104365;1253;60586;-60
2023/04/09 10:46:29;;;;;;;3.30;1.90;;;;;;;27.61;34.49;100051.48;104410;1259;60185;-60
2023/04/09 10:49:09;;;;;;;3.30;1.90;;;;;;;27.72;33.98;100045.80;104362;1270;73325;-60
2023/04/09 10:51:40;;;;;;;3.30;2.10;;;;;;;27.74;33.58;100048.98;104590;1252;69649;-59
2023/04/09 10:54:33;;;;;;;2.80;2.20;;;;;;;27.70;33.60;100044.76;105546;1253;73000;-59
2023/04/09 10:57:21;;;;;;;5.10;2.10;;;;;;;27.64;33.28;100044.14;104355;1254;60574;-60
2023/04/09 10:59:50;;;;;;;4.40;2.20;;;;;;;27.54;34.13;100043.23;104389;1254;60845;-60
2023/04/09 11:02:38;;;;;;;3.30;2.30;;;;;;;27.54;34.17;100040.34;104325;1260;74029;-60
2023/04/09 11:05:18;;;;;;;3.00;1.60;;;;;;;27.64;34.39;100040.72;104803;1253;69547;-61
2023/04/09 11:08:02;;;;;;;;;;;;;;;27.65;33.43;100033.54;104501;1254;71547;-61
2023/04/09 11:10:38;;;;;;;5.20;2.20;;;;;;;27.69;34.01;100030.38;104398;1255;60586;-61
2023/04/09 11:13:06;;;;;;;5.00;2.50;;;;;;;27.56;33.94;100028.20;104456;1257;60613;-61
2023/04/09 11:15:38;;;;;;;3.30;2.10;;;;;;;27.57;33.87;100024.92;104404;1254;74049;-60
2023/04/09 11:18:13;;;;;;;3.80;2.50;;;;;;;27.60;34.19;100019.52;104410;1258;69664;-60
2023/04/09 11:21:02;;;;;;;5.40;2.20;;;;;;;27.73;34.01;100015.98;104352;1257;75255;-60
2023/04/09 11:23:31;;;;;;;4.30;2.20;;;;;;;27.72;33.99;100013.59;104463;1253;60949;-60
2023/04/09 11:26:00;;;;;;;5.00;2.20;;;;;;;27.72;34.10;100015.66;104405;1269;60492;-61
2023/04/09 11:28:47;;;;;;;3.00;2.50;;;;;;;27.68;33.73;100016.66;104595;1262;77291;-62
2023/04/09 11:31:28;;;;;;;2.80;2.50;;;;;;;27.62;33.97;100016.77;104497;1257;70016;-60
2023/04/09 11:33:58;;;;;;;4.90;2.60;;;;;;;27.57;34.12;100008.71;104519;1257;72061;-60
2023/04/09 11:36:28;;;;;;;5.10;2.80;;;;;;;27.56;34.58;100005.23;104350;1262;60658;-61